Time;durP1;ratioP1;P1;durP2;ratioP2;P2;SDS_P1;SDS_P2;PMS_P1;PMS_P2;Temp;Humidity;BMP_temperature;BMP_pressure;BME280_temperature;BME280_humidity;BME280_pressure;Samples;Min_cycle;Max_cycle;Signal;HPM_P1;HPM_P2
2024/02/09 00:02:04;;;;;;;11.57;3.38;;;9.40;99.90;;;;;;6034424;23;20596;-79
2024/02/09 00:04:51;;;;;;;14.20;3.50;;;9.40;99.90;;;;;;6055067;23;20137;-79
2024/02/09 00:07:39;;;;;;;11.82;3.58;;;9.40;99.90;;;;;;6014897;23;20031;-79
2024/02/09 00:10:27;;;;;;;12.38;3.28;;;9.40;99.90;;;;;;6056748;23;20031;-82
2024/02/09 00:13:17;;;;;;;13.07;3.83;;;9.40;99.90;;;;;;6054596;23;20037;-80
2024/02/09 00:16:05;;;;;;;11.82;3.15;;;9.40;99.90;;;;;;6057069;23;20379;-78
2024/02/09 00:18:52;;;;;;;15.52;3.05;;;9.30;99.90;;;;;;6065298;23;20058;-80
2024/02/09 00:21:40;;;;;;;15.00;4.28;;;9.30;99.90;;;;;;6051574;23;20631;-80
2024/02/09 00:24:31;;;;;;;18.23;3.47;;;9.20;99.90;;;;;;6054747;23;20467;-80
2024/02/09 00:27:19;;;;;;;12.27;3.40;;;9.10;99.90;;;;;;6062942;23;20278;-78
2024/02/09 00:30:07;;;;;;;15.63;3.85;;;9.10;99.90;;;;;;6067508;23;20031;-81
2024/02/09 00:32:58;;;;;;;11.20;3.00;;;9.10;99.90;;;;;;6061549;23;20033;-78
2024/02/09 00:35:48;;;;;;;15.82;3.55;;;9.10;99.90;;;;;;6036502;23;20078;-80
2024/02/09 00:38:39;;;;;;;15.02;3.38;;;9.10;99.90;;;;;;6056895;23;20126;-79
2024/02/09 00:41:28;;;;;;;12.02;3.28;;;9.00;99.90;;;;;;6057788;23;20031;-80
2024/02/09 00:44:17;;;;;;;11.95;3.13;;;9.00;99.90;;;;;;6057246;23;20063;-80
2024/02/09 00:47:04;;;;;;;10.27;3.55;;;8.90;99.90;;;;;;6055475;23;20490;-79
2024/02/09 00:49:51;;;;;;;9.57;2.90;;;8.80;99.90;;;;;;6035463;23;20027;-80
2024/02/09 00:52:39;;;;;;;10.75;3.13;;;8.80;99.90;;;;;;6036443;23;20645;-80
2024/02/09 00:55:31;;;;;;;10.27;2.97;;;8.70;99.90;;;;;;6055241;23;20117;-80
2024/02/09 00:58:18;;;;;;;10.50;3.50;;;8.70;99.90;;;;;;6055962;23;20030;-79
2024/02/09 01:01:09;;;;;;;10.15;3.53;;;8.60;99.90;;;;;;6057101;23;20053;-79
2024/02/09 01:03:56;;;;;;;13.80;3.65;;;8.60;99.90;;;;;;6056284;23;20027;-80
2024/02/09 01:06:44;;;;;;;10.63;3.58;;;8.60;99.90;;;;;;6057541;23;20026;-80
2024/02/09 01:09:33;;;;;;;11.20;3.40;;;8.60;99.90;;;;;;6045151;23;20534;-80
2024/02/09 02:45:27;;;;;;;11.75;3.40;;;8.50;99.90;;;;;;6069361;23;20037;-80
2024/02/09 03:06:55;;;;;;;12.82;4.00;;;8.50;99.90;;;;;;6059392;23;20027;-81
2024/02/09 03:10:02;;;;;;;7.15;3.20;;;8.50;99.90;;;;;;6043913;23;20055;-79
2024/02/09 03:12:51;;;;;;;13.90;3.50;;;8.50;99.90;;;;;;6069049;23;20460;-80
2024/02/09 03:15:52;;;;;;;8.40;3.40;;;8.50;99.90;;;;;;6042149;23;20034;-81
2024/02/09 03:18:41;;;;;;;11.05;3.50;;;8.50;99.90;;;;;;6060789;23;20030;-82
2024/02/09 03:21:35;;;;;;;12.35;3.30;;;8.60;99.90;;;;;;6062984;23;20026;-80
2024/02/09 03:24:22;;;;;;;9.68;3.25;;;8.50;99.90;;;;;;6068287;23;20034;-80
2024/02/09 03:27:10;;;;;;;9.38;3.90;;;8.60;99.90;;;;;;6064018;23;20026;-80
2024/02/09 03:29:59;;;;;;;12.23;4.15;;;8.60;99.90;;;;;;6057246;23;20022;-79
2024/02/09 03:32:48;;;;;;;12.32;4.28;;;8.60;99.90;;;;;;6058041;23;20034;-80
2024/02/09 03:35:36;;;;;;;9.55;3.58;;;8.50;99.90;;;;;;6036271;23;20035;-80
2024/02/09 03:38:26;;;;;;;9.35;3.22;;;8.60;99.90;;;;;;6057707;23;20403;-81
2024/02/09 03:41:14;;;;;;;5.20;2.80;;;8.60;99.90;;;;;;6057489;23;20018;-80
2024/02/09 03:44:04;;;;;;;14.10;3.58;;;8.60;99.90;;;;;;6055914;23;20026;-81
2024/02/09 03:46:53;;;;;;;10.48;3.47;;;8.60;99.90;;;;;;6055277;23;20105;-82
2024/02/09 03:49:41;;;;;;;9.90;3.90;;;8.60;99.90;;;;;;6057558;23;20022;-80
2024/02/09 03:52:44;;;;;;;7.55;3.47;;;8.60;99.90;;;;;;6055347;23;20866;-81
2024/02/09 03:55:41;;;;;;;10.23;4.10;;;8.60;99.90;;;;;;6055939;23;20035;-82
2024/02/09 03:58:30;;;;;;;7.88;2.83;;;8.60;99.90;;;;;;6053480;23;20034;-80
2024/02/09 04:01:22;;;;;;;10.35;3.60;;;8.50;99.90;;;;;;6055576;23;20494;-80
2024/02/09 04:04:10;;;;;;;13.63;3.72;;;8.60;99.90;;;;;;6055219;23;20023;-82
2024/02/09 04:06:58;;;;;;;6.18;3.33;;;8.60;99.90;;;;;;6055261;23;20133;-81
2024/02/09 04:09:46;;;;;;;8.90;3.42;;;8.60;99.90;;;;;;6066827;23;20023;-81
2024/02/09 04:12:36;;;;;;;5.95;3.17;;;8.60;99.90;;;;;;6065821;23;20030;-81
2024/02/09 04:15:24;;;;;;;4.15;2.75;;;8.60;99.90;;;;;;6046076;23;20030;-83
2024/02/09 04:18:16;;;;;;;9.75;3.15;;;8.70;99.90;;;;;;6064272;23;20456;-80
2024/02/09 04:21:04;;;;;;;7.88;3.03;;;8.70;99.90;;;;;;6066279;23;20043;-82
2024/02/09 04:23:55;;;;;;;7.50;2.85;;;8.70;99.90;;;;;;6039270;23;20038;-82
2024/02/09 04:26:44;;;;;;;4.50;2.40;;;8.80;99.90;;;;;;6054087;23;20023;-81
2024/02/09 04:29:36;;;;;;;5.38;2.42;;;8.80;99.90;;;;;;6056316;23;20119;-80
2024/02/09 04:32:24;;;;;;;7.80;2.67;;;8.70;99.90;;;;;;6035197;23;20633;-81
2024/02/09 04:35:14;;;;;;;5.85;2.45;;;8.80;99.90;;;;;;6054967;23;20158;-82
2024/02/09 04:38:06;;;;;;;3.67;2.10;;;8.80;99.90;;;;;;6054800;23;20035;-82
2024/02/09 04:40:57;;;;;;;3.92;2.28;;;8.80;99.90;;;;;;6059385;23;20031;-81
2024/02/09 04:43:44;;;;;;;3.17;1.95;;;8.80;99.90;;;;;;6053343;23;20027;-81
2024/02/09 04:46:33;;;;;;;7.43;2.20;;;8.80;99.90;;;;;;6055116;23;20031;-82
2024/02/09 04:49:21;;;;;;;6.85;2.45;;;8.80;99.90;;;;;;6037941;23;20085;-82
2024/02/09 04:52:11;;;;;;;5.47;2.28;;;8.80;99.90;;;;;;6069613;23;20114;-82
2024/02/09 04:54:59;;;;;;;5.05;2.33;;;8.90;99.90;;;;;;5995000;23;1683901;-82
2024/02/09 04:57:47;;;;;;;5.88;2.65;;;8.90;99.90;;;;;;6056672;23;20038;-79
2024/02/09 05:00:35;;;;;;;4.25;1.90;;;8.90;99.90;;;;;;6058452;23;20041;-80
2024/02/09 05:03:23;;;;;;;4.97;2.00;;;8.90;63.30;;;;;;6046877;23;20485;-81
2024/02/09 05:06:11;;;;;;;4.20;2.40;;;8.90;1.00;;;;;;6066111;23;20118;-82
2024/02/09 05:08:59;;;;;;;5.15;2.15;;;8.90;1.00;;;;;;6057145;23;20026;-82
2024/02/09 05:11:47;;;;;;;3.38;2.13;;;8.90;1.00;;;;;;6056827;23;20070;-80
2024/02/09 05:14:37;;;;;;;2.63;1.83;;;8.90;99.90;;;;;;6056210;23;20502;-81
2024/02/09 05:17:24;;;;;;;7.13;2.78;;;8.90;99.90;;;;;;6057261;23;20407;-82
2024/02/09 05:20:13;;;;;;;3.40;2.50;;;8.90;99.90;;;;;;6058124;23;20099;-81
2024/02/09 05:23:01;;;;;;;5.75;2.30;;;8.90;99.90;;;;;;6058109;23;20599;-82
2024/02/09 05:25:49;;;;;;;5.90;2.20;;;8.80;99.90;;;;;;6058302;23;20050;-79
2024/02/09 05:28:39;;;;;;;3.38;1.98;;;8.90;1.00;;;;;;6059093;23;20477;-80
2024/02/09 05:31:27;;;;;;;5.53;2.03;;;8.90;99.90;;;;;;6062783;23;20031;-82
2024/02/09 05:34:16;;;;;;;3.30;2.15;;;8.90;99.90;;;;;;6062992;23;20029;-81
2024/02/09 05:37:04;;;;;;;4.28;2.05;;;8.90;99.90;;;;;;6045593;23;20116;-79
2024/02/09 05:39:52;;;;;;;2.63;1.80;;;8.90;1.00;;;;;;6041576;23;20031;-80
2024/02/09 05:42:40;;;;;;;3.22;1.60;;;9.00;99.90;;;;;;6060515;23;20516;-81
2024/02/09 05:45:35;;;;;;;5.13;1.80;;;9.00;1.60;;;;;;6062627;23;20061;-80
2024/02/09 05:48:36;;;;;;;2.63;1.60;;;9.00;1.00;;;;;;6068726;23;20102;-82
2024/02/09 05:51:24;;;;;;;5.28;1.80;;;9.00;99.90;;;;;;6075009;23;20078;-83
2024/02/09 05:54:12;;;;;;;4.22;1.67;;;9.00;94.50;;;;;;6067795;23;20050;-85
2024/02/09 05:57:00;;;;;;;3.40;2.00;;;8.90;1.00;;;;;;6064113;23;20023;-83
2024/02/09 05:59:47;;;;;;;5.22;1.50;;;8.90;1.00;;;;;;6063363;23;20026;-84
2024/02/09 06:02:37;;;;;;;2.22;1.67;;;9.00;99.90;;;;;;6068784;23;20115;-83
2024/02/09 06:05:24;;;;;;;3.55;1.63;;;8.90;99.90;;;;;;6063200;23;20059;-81
2024/02/09 06:08:16;;;;;;;2.25;1.40;;;9.00;99.90;;;;;;6060289;23;20031;-83
2024/02/09 06:11:05;;;;;;;4.82;1.30;;;9.00;99.90;;;;;;6039088;23;20584;-81
2024/02/09 06:13:52;;;;;;;4.32;1.27;;;9.00;91.60;;;;;;6059521;23;20075;-80
2024/02/09 06:16:40;;;;;;;3.20;1.63;;;9.00;99.90;;;;;;6039706;23;20027;-81
2024/02/09 06:19:32;;;;;;;1.30;1.20;;;8.90;99.90;;;;;;6047859;23;20019;-81
2024/02/09 06:22:21;;;;;;;1.42;1.30;;;9.00;1.00;;;;;;6077150;23;20018;-80
2024/02/09 06:25:09;;;;;;;4.55;1.45;;;9.00;1.00;;;;;;6076235;23;20027;-79
2024/02/09 06:28:02;;;;;;;3.28;1.50;;;9.00;99.90;;;;;;6062800;23;20031;-81
2024/02/09 06:30:51;;;;;;;2.95;1.40;;;9.00;99.90;;;;;;6056638;23;20721;-79
2024/02/09 06:33:40;;;;;;;1.92;1.55;;;9.10;99.90;;;;;;6062814;23;20053;-80
2024/02/09 06:36:29;;;;;;;4.55;1.30;;;9.00;99.90;;;;;;6065215;23;20031;-77
2024/02/09 06:39:17;;;;;;;3.85;2.10;;;9.00;99.90;;;;;;6060579;23;20030;-78
2024/02/09 06:42:04;;;;;;;2.45;1.70;;;9.00;99.90;;;;;;6052385;23;20049;-78
2024/02/09 06:44:55;;;;;;;4.47;2.30;;;9.00;99.90;;;;;;6036756;23;20054;-80
2024/02/09 06:47:43;;;;;;;3.03;1.65;;;8.90;99.90;;;;;;6056292;23;20022;-80
2024/02/09 06:50:35;;;;;;;6.25;2.80;;;8.90;99.90;;;;;;6036519;23;20497;-77
2024/02/09 06:53:22;;;;;;;4.07;2.20;;;8.90;99.90;;;;;;6036111;23;20063;-78
2024/02/09 06:56:11;;;;;;;3.83;1.88;;;8.80;99.90;;;;;;6054910;23;20030;-77
2024/02/09 06:59:04;;;;;;;2.05;1.77;;;8.80;99.90;;;;;;6055530;23;20053;-77
2024/02/09 07:01:52;;;;;;;4.97;2.20;;;8.80;99.90;;;;;;6055000;23;20026;-77
2024/02/09 07:04:40;;;;;;;3.10;2.08;;;8.70;99.90;;;;;;6055469;23;20022;-78
2024/02/09 07:07:29;;;;;;;3.92;1.80;;;8.80;99.90;;;;;;6052616;23;20026;-78
2024/02/09 07:10:18;;;;;;;2.28;1.63;;;8.70;99.90;;;;;;6055204;23;20034;-75
2024/02/09 07:13:05;;;;;;;3.28;1.67;;;8.80;99.90;;;;;;6032868;23;20047;-77
2024/02/09 07:15:56;;;;;;;3.38;2.08;;;8.80;99.90;;;;;;6031249;23;20034;-79
2024/02/09 07:18:46;;;;;;;3.78;1.95;;;8.80;99.90;;;;;;6054609;23;20038;-81
2024/02/09 07:21:35;;;;;;;9.82;2.85;;;8.80;99.90;;;;;;6066780;23;20031;-78
2024/02/09 07:24:27;;;;;;;4.63;2.03;;;8.80;99.90;;;;;;6069693;23;20082;-79
2024/02/09 07:27:15;;;;;;;5.05;2.10;;;8.80;99.90;;;;;;6064321;23;20031;-78
2024/02/09 07:30:07;;;;;;;8.93;2.63;;;8.90;99.90;;;;;;6035184;23;20026;-78
2024/02/09 07:32:55;;;;;;;3.13;1.85;;;8.90;99.90;;;;;;6050975;23;20055;-79
2024/02/09 07:35:46;;;;;;;4.05;2.10;;;9.00;99.90;;;;;;6063025;23;20026;-78
2024/02/09 07:38:35;;;;;;;7.43;1.80;;;9.10;99.90;;;;;;6071777;23;20030;-77
2024/02/09 07:41:23;;;;;;;3.30;1.92;;;9.10;99.90;;;;;;6074304;23;20042;-78
2024/02/09 07:44:12;;;;;;;3.40;1.73;;;9.20;99.90;;;;;;6061601;23;20033;-80
2024/02/09 07:47:04;;;;;;;2.70;1.80;;;9.30;99.90;;;;;;6064307;23;20098;-77
2024/02/09 07:49:55;;;;;;;5.40;1.80;;;9.40;99.90;;;;;;6077800;23;20038;-78
2024/02/09 07:52:45;;;;;;;4.72;1.92;;;9.40;99.90;;;;;;6037164;23;20030;-77
2024/02/09 07:55:33;;;;;;;4.85;1.98;;;9.40;99.90;;;;;;6068893;23;20030;-75
2024/02/09 07:58:22;;;;;;;2.60;1.70;;;9.50;99.90;;;;;;6035335;23;20031;-78
2024/02/09 08:01:11;;;;;;;4.22;1.67;;;9.60;99.90;;;;;;6054507;23;20030;-77
2024/02/09 08:03:58;;;;;;;2.85;1.50;;;9.60;99.90;;;;;;6033068;23;20029;-78
2024/02/09 08:06:48;;;;;;;3.78;1.77;;;9.70;99.90;;;;;;6065482;23;20033;-76
2024/02/09 08:09:36;;;;;;;5.13;1.83;;;9.90;99.90;;;;;;6065793;23;20766;-77
2024/02/09 08:12:24;;;;;;;3.65;1.83;;;10.00;99.90;;;;;;6057203;23;20027;-77
2024/02/09 08:15:12;;;;;;;3.08;1.85;;;10.00;99.90;;;;;;6047916;23;20050;-76
2024/02/09 08:18:02;;;;;;;6.40;2.30;;;10.10;99.90;;;;;;6044856;23;20355;-78
2024/02/09 08:20:50;;;;;;;3.40;2.20;;;10.10;99.90;;;;;;6042950;23;20137;-77
2024/02/09 08:23:41;;;;;;;6.63;2.05;;;10.10;99.90;;;;;;6055194;23;20736;-76
2024/02/09 08:26:29;;;;;;;6.18;2.42;;;10.10;99.90;;;;;;6053744;23;20870;-78
2024/02/09 08:29:32;;;;;;;5.75;1.92;;;10.20;99.90;;;;;;6035443;23;20027;-77
2024/02/09 08:32:27;;;;;;;3.30;1.90;;;10.40;99.90;;;;;;6055146;23;20034;-78
2024/02/09 08:35:14;;;;;;;3.80;1.80;;;10.50;99.90;;;;;;6057589;23;20026;-80
2024/02/09 08:38:02;;;;;;;3.22;1.65;;;10.60;99.90;;;;;;6035673;23;20035;-79
2024/02/09 08:40:51;;;;;;;5.05;2.10;;;10.60;99.90;;;;;;6062452;23;20031;-78
2024/02/09 08:43:42;;;;;;;5.07;1.58;;;10.60;99.90;;;;;;6071922;23;20023;-79
2024/02/09 08:46:30;;;;;;;3.42;1.77;;;10.70;99.90;;;;;;6075903;23;20033;-78
2024/02/09 08:49:21;;;;;;;5.85;1.80;;;10.70;99.90;;;;;;6078273;23;20057;-78
2024/02/09 08:52:13;;;;;;;4.97;1.60;;;10.90;99.90;;;;;;6050756;23;20454;-78
2024/02/09 08:55:02;;;;;;;3.25;1.55;;;11.10;99.90;;;;;;6067851;23;20030;-75
2024/02/09 08:57:51;;;;;;;6.38;2.20;;;11.20;99.90;;;;;;6066899;23;20086;-79
2024/02/09 09:00:38;;;;;;;9.45;2.33;;;11.40;99.90;;;;;;6036611;23;20415;-78
2024/02/09 09:03:36;;;;;;;3.65;1.77;;;11.50;99.90;;;;;;6055363;23;20117;-78
2024/02/09 09:06:27;;;;;;;2.38;1.50;;;11.50;99.90;;;;;;6063166;23;20362;-78
2024/02/09 09:09:17;;;;;;;3.25;1.63;;;11.50;99.90;;;;;;6065407;23;20035;-78
2024/02/09 09:12:09;;;;;;;3.70;1.45;;;11.80;99.90;;;;;;6063408;23;20033;-81
2024/02/09 09:15:03;;;;;;;6.95;1.60;;;11.90;99.90;;;;;;6059441;23;20034;-80
2024/02/09 09:17:52;;;;;;;3.60;1.92;;;11.70;99.90;;;;;;6058953;23;20033;-78
2024/02/09 09:20:43;;;;;;;5.80;2.35;;;11.80;99.90;;;;;;6061396;23;20435;-78
2024/02/09 09:23:37;;;;;;;5.63;1.45;;;11.80;99.90;;;;;;6039236;23;20332;-80
2024/02/09 09:26:30;;;;;;;2.83;1.67;;;11.80;99.90;;;;;;6062901;23;20027;-79
2024/02/09 09:29:26;;;;;;;4.05;1.65;;;11.90;99.90;;;;;;6060674;23;20796;-78
2024/02/09 09:32:14;;;;;;;5.78;1.60;;;12.00;99.90;;;;;;6057057;23;20407;-77
2024/02/09 09:35:12;;;;;;;3.72;1.40;;;12.10;99.90;;;;;;6060692;23;20087;-79
2024/02/09 09:37:59;;;;;;;2.85;1.40;;;12.00;99.90;;;;;;6060518;23;20031;-81
2024/02/09 09:40:52;;;;;;;4.47;1.95;;;11.90;99.90;;;;;;6063625;23;20030;-79
2024/02/09 09:43:40;;;;;;;3.60;1.77;;;11.70;99.90;;;;;;6063605;23;20062;-79
2024/02/09 09:46:30;;;;;;;4.88;1.75;;;11.70;99.90;;;;;;6076054;23;20508;-78
2024/02/09 09:49:18;;;;;;;5.35;1.50;;;11.80;99.90;;;;;;6062798;23;20592;-77
2024/02/09 09:52:54;;;;;;;5.82;1.88;;;11.80;99.90;;;;;;6057624;23;20022;-79
2024/02/09 09:55:45;;;;;;;7.07;2.05;;;11.90;99.90;;;;;;5974680;23;20108;-78
2024/02/09 09:58:37;;;;;;;3.45;1.67;;;12.00;99.90;;;;;;5991613;23;20028;-78
2024/02/09 10:01:38;;;;;;;2.00;1.27;;;12.20;99.90;;;;;;6060909;23;20542;-79
2024/02/09 10:04:26;;;;;;;9.80;1.90;;;12.10;99.90;;;;;;6062534;23;20023;-80
2024/02/09 10:07:19;;;;;;;3.47;1.67;;;12.00;99.90;;;;;;6041863;23;20077;-79
2024/02/09 10:10:11;;;;;;;4.05;1.88;;;11.80;99.90;;;;;;6066819;23;20023;-77
2024/02/09 10:13:12;;;;;;;2.53;1.70;;;11.70;99.90;;;;;;6069773;23;20058;-77
2024/02/09 10:16:05;;;;;;;7.43;1.85;;;11.80;99.90;;;;;;6059984;23;20030;-78
2024/02/09 10:18:54;;;;;;;5.75;1.83;;;11.80;99.90;;;;;;6070446;23;20027;-76
2024/02/09 10:21:42;;;;;;;4.32;1.60;;;11.80;99.90;;;;;;6074700;23;20098;-79
2024/02/09 10:24:47;;;;;;;5.55;1.50;;;11.70;99.90;;;;;;6064174;23;20027;-79
2024/02/09 10:27:39;;;;;;;4.30;1.48;;;11.80;99.90;;;;;;6071686;23;20034;-79
2024/02/09 10:30:29;;;;;;;3.63;2.03;;;11.80;99.90;;;;;;6046785;23;20037;-78
2024/02/09 10:33:20;;;;;;;6.05;1.83;;;11.80;99.90;;;;;;6042096;23;20078;-78
2024/02/09 10:36:11;;;;;;;5.15;1.65;;;11.80;99.90;;;;;;6057607;23;20639;-79
2024/02/09 10:38:59;;;;;;;4.50;1.60;;;11.90;99.90;;;;;;6056653;23;20030;-78
2024/02/09 10:41:49;;;;;;;5.40;2.08;;;12.00;99.90;;;;;;6063350;23;20023;-76
2024/02/09 10:44:38;;;;;;;2.35;1.48;;;12.10;99.90;;;;;;6054967;23;20030;-78
2024/02/09 10:47:30;;;;;;;5.18;1.60;;;12.20;99.90;;;;;;6037953;23;20031;-79
2024/02/09 10:50:19;;;;;;;3.60;1.55;;;12.60;99.90;;;;;;6058363;23;20066;-78
2024/02/09 10:53:12;;;;;;;5.63;1.45;;;13.30;99.90;;;;;;6058478;23;20098;-79
2024/02/09 10:56:06;;;;;;;4.30;1.42;;;13.40;99.90;;;;;;6063109;23;20114;-82
2024/02/09 10:58:58;;;;;;;2.72;1.20;;;13.10;99.90;;;;;;6062580;23;20034;-80
2024/02/09 11:01:50;;;;;;;3.53;1.73;;;13.00;99.90;;;;;;6063052;23;20111;-81
2024/02/09 11:04:37;;;;;;;2.38;1.40;;;12.70;99.90;;;;;;6063123;23;20034;-82
2024/02/09 11:07:25;;;;;;;4.95;1.88;;;12.50;99.90;;;;;;6062368;23;20350;-79
2024/02/09 11:10:19;;;;;;;3.45;1.50;;;12.40;99.90;;;;;;6060993;23;20081;-81
2024/02/09 11:13:24;;;;;;;3.75;1.58;;;12.40;99.90;;;;;;6064026;23;20126;-80
2024/02/09 11:16:17;;;;;;;3.97;1.40;;;12.30;99.90;;;;;;6077561;23;20046;-78
2024/02/09 11:19:13;;;;;;;5.43;1.70;;;12.30;99.90;;;;;;6075478;23;20045;-79
2024/02/09 11:22:08;;;;;;;3.67;1.70;;;12.30;99.90;;;;;;6055863;23;20030;-80
2024/02/09 11:25:01;;;;;;;3.13;1.35;;;12.40;99.90;;;;;;6056403;23;20074;-82
2024/02/09 11:27:51;;;;;;;2.28;1.33;;;12.40;99.90;;;;;;6074995;23;20019;-76
2024/02/09 11:30:41;;;;;;;3.90;1.38;;;12.30;99.90;;;;;;6084156;23;20033;-77
2024/02/09 11:33:29;;;;;;;2.28;1.20;;;12.30;99.90;;;;;;6083650;23;20382;-76
2024/02/09 11:36:22;;;;;;;3.92;1.50;;;12.30;99.90;;;;;;6076597;23;20030;-76
2024/02/09 11:39:10;;;;;;;6.95;1.60;;;12.20;99.90;;;;;;6071471;23;20057;-77
2024/02/09 11:41:59;;;;;;;3.72;1.65;;;12.10;99.90;;;;;;6082813;23;20026;-76
2024/02/09 11:44:47;;;;;;;5.25;1.70;;;12.10;99.90;;;;;;6072168;23;20027;-75
2024/02/09 11:47:40;;;;;;;4.65;1.83;;;12.00;99.90;;;;;;6057856;23;20031;-77
2024/02/09 11:50:31;;;;;;;1.63;1.10;;;12.00;99.90;;;;;;6039304;23;20046;-80
2024/02/09 11:53:20;;;;;;;4.75;1.63;;;11.90;99.90;;;;;;6060512;23;20038;-81
2024/02/09 11:56:09;;;;;;;4.57;1.40;;;11.90;99.90;;;;;;6031585;23;20027;-80
2024/02/09 11:58:59;;;;;;;4.93;1.50;;;11.90;99.90;;;;;;6012050;23;20031;-79
2024/02/09 12:01:47;;;;;;;3.08;1.40;;;11.90;99.90;;;;;;6030236;23;20038;-80
2024/02/09 12:04:38;;;;;;;8.32;1.70;;;12.00;99.90;;;;;;6028788;23;20035;-78
2024/02/09 12:07:26;;;;;;;4.57;1.33;;;11.90;99.90;;;;;;6029000;23;20102;-79
2024/02/09 12:10:13;;;;;;;3.78;1.42;;;11.90;99.90;;;;;;6031681;23;20063;-80
2024/02/09 12:13:02;;;;;;;5.57;1.63;;;11.90;99.90;;;;;;6034596;23;20056;-78
2024/02/09 12:15:51;;;;;;;1.98;1.60;;;11.90;99.90;;;;;;6039553;23;20419;-77
2024/02/09 12:18:46;;;;;;;7.78;1.70;;;11.70;99.90;;;;;;6039523;23;20484;-82
2024/02/09 12:21:34;;;;;;;5.63;1.73;;;11.40;99.90;;;;;;6044121;23;20027;-78
2024/02/09 12:24:22;;;;;;;4.93;1.58;;;11.20;99.90;;;;;;6043261;23;20024;-81
2024/02/09 12:27:18;;;;;;;3.45;1.50;;;11.00;99.90;;;;;;6043890;23;20146;-80
2024/02/09 12:30:10;;;;;;;5.22;1.83;;;10.90;99.90;;;;;;6043999;23;20034;-79
2024/02/09 12:32:59;;;;;;;4.65;1.60;;;10.80;99.90;;;;;;6039074;23;20384;-79
2024/02/09 12:35:47;;;;;;;7.05;2.10;;;10.80;99.90;;;;;;6035512;23;20023;-77
2024/02/09 12:38:40;;;;;;;3.50;1.55;;;10.90;99.90;;;;;;6035486;23;20034;-80
2024/02/09 12:41:32;;;;;;;5.38;1.90;;;10.80;99.90;;;;;;6036882;23;20027;-79
2024/02/09 12:44:22;;;;;;;6.45;2.10;;;10.70;99.90;;;;;;6034823;23;20027;-79
2024/02/09 12:47:14;;;;;;;4.93;2.00;;;10.70;99.90;;;;;;6013945;23;20023;-79
2024/02/09 12:50:02;;;;;;;6.15;2.60;;;10.60;99.90;;;;;;6037005;23;20083;-78
2024/02/09 12:52:51;;;;;;;3.17;1.80;;;10.70;99.90;;;;;;6037298;23;20042;-77
2024/02/09 12:55:39;;;;;;;3.35;2.05;;;10.70;99.90;;;;;;6092517;23;20014;-78
2024/02/09 12:58:27;;;;;;;5.22;1.95;;;10.80;99.90;;;;;;6080298;23;20015;-79
2024/02/09 13:01:17;;;;;;;8.52;2.28;;;10.90;99.90;;;;;;6081983;23;20583;-78
2024/02/09 13:04:05;;;;;;;4.47;1.90;;;10.90;99.90;;;;;;6078555;23;20030;-79
2024/02/09 13:06:55;;;;;;;3.13;1.73;;;11.00;99.90;;;;;;6068239;23;20453;-81
2024/02/09 13:09:46;;;;;;;5.90;1.98;;;11.00;99.90;;;;;;6071624;23;20034;-78
2024/02/09 13:12:37;;;;;;;6.57;2.10;;;11.10;99.90;;;;;;6054481;23;20074;-82
2024/02/09 13:15:28;;;;;;;4.30;1.85;;;11.20;99.90;;;;;;6088430;23;20022;-78
2024/02/09 13:18:16;;;;;;;6.45;1.80;;;11.30;99.90;;;;;;6056830;23;20026;-78
2024/02/09 13:21:04;;;;;;;3.47;1.80;;;11.30;99.90;;;;;;6079984;23;20019;-77
2024/02/09 13:23:54;;;;;;;3.00;1.73;;;11.30;99.90;;;;;;6078667;23;20019;-78
2024/02/09 13:26:43;;;;;;;4.25;2.28;;;11.30;99.90;;;;;;6040710;23;20102;-80
2024/02/09 13:29:31;;;;;;;5.00;1.83;;;11.30;99.90;;;;;;6063819;23;20034;-80
2024/02/09 13:32:20;;;;;;;6.47;2.05;;;11.30;99.90;;;;;;6061990;23;20027;-79
2024/02/09 13:35:11;;;;;;;4.38;2.10;;;11.40;99.90;;;;;;6061406;23;20105;-77
2024/02/09 13:37:58;;;;;;;6.20;1.75;;;11.50;99.90;;;;;;6039700;23;20042;-79
2024/02/09 13:40:48;;;;;;;4.28;1.73;;;11.60;99.90;;;;;;6060350;23;20023;-79
2024/02/09 13:43:36;;;;;;;6.90;1.60;;;11.60;99.90;;;;;;6041858;23;20027;-81
2024/02/09 13:46:28;;;;;;;7.22;1.70;;;11.70;99.90;;;;;;6061146;23;20094;-78
2024/02/09 13:49:15;;;;;;;4.53;2.05;;;11.70;99.90;;;;;;6041484;23;20075;-80
2024/02/09 13:52:04;;;;;;;3.85;2.22;;;11.70;99.90;;;;;;6067797;23;20030;-79
2024/02/09 13:54:54;;;;;;;5.57;1.90;;;11.70;99.90;;;;;;6072829;23;20054;-77
2024/02/09 13:57:47;;;;;;;5.20;1.85;;;11.70;99.90;;;;;;6039067;23;20109;-77
2024/02/09 14:00:35;;;;;;;5.80;2.22;;;11.80;99.90;;;;;;6057041;23;20046;-78
2024/02/09 14:03:26;;;;;;;3.72;1.85;;;11.80;99.90;;;;;;6071849;23;20080;-76
2024/02/09 14:06:18;;;;;;;4.25;2.15;;;11.90;99.90;;;;;;6073160;23;20027;-78
2024/02/09 14:09:06;;;;;;;3.67;2.05;;;11.90;99.90;;;;;;6048796;23;20026;-78
2024/02/09 14:11:54;;;;;;;2.55;1.95;;;11.90;99.90;;;;;;6060955;23;20031;-78
2024/02/09 14:14:41;;;;;;;4.43;2.03;;;11.90;99.90;;;;;;6059737;23;20115;-78
2024/02/09 14:17:31;;;;;;;4.50;2.08;;;11.90;99.90;;;;;;6061837;23;20096;-77
2024/02/09 14:20:22;;;;;;;3.63;1.73;;;11.90;99.90;;;;;;6061879;23;20031;-78
2024/02/09 14:23:11;;;;;;;3.63;1.67;;;11.90;99.90;;;;;;6062391;23;20048;-77
2024/02/09 14:26:00;;;;;;;3.22;1.83;;;12.00;99.90;;;;;;6061671;23;20031;-78
2024/02/09 14:28:48;;;;;;;4.75;2.08;;;11.90;99.90;;;;;;6040564;23;20022;-78
2024/02/09 14:31:36;;;;;;;5.85;2.05;;;11.90;99.90;;;;;;6060740;23;20035;-78
2024/02/09 14:34:24;;;;;;;4.85;1.65;;;11.90;99.90;;;;;;6057430;23;20033;-79
2024/02/09 14:37:12;;;;;;;5.85;2.15;;;11.90;99.90;;;;;;6072183;23;20071;-79
2024/02/09 14:40:03;;;;;;;5.45;1.70;;;11.90;99.90;;;;;;6048297;23;20031;-79
2024/02/09 14:42:51;;;;;;;4.75;1.63;;;11.90;99.90;;;;;;6064299;23;20054;-80
2024/02/09 14:45:38;;;;;;;2.08;1.58;;;11.80;99.90;;;;;;6042231;23;20093;-78
2024/02/09 14:48:26;;;;;;;4.75;1.77;;;11.80;99.90;;;;;;6068037;23;20054;-82
2024/02/09 14:51:15;;;;;;;4.07;1.60;;;11.80;99.90;;;;;;6074785;23;20023;-81
2024/02/09 14:54:03;;;;;;;4.68;2.00;;;11.80;99.90;;;;;;6063018;23;20324;-79
2024/02/09 14:56:52;;;;;;;4.28;1.90;;;11.80;99.90;;;;;;6058477;23;20027;-79
2024/02/09 14:59:46;;;;;;;6.68;2.30;;;11.80;99.90;;;;;;6058026;23;20342;-78
2024/02/09 15:02:34;;;;;;;6.45;2.08;;;11.80;99.90;;;;;;6036279;23;20146;-78
2024/02/09 15:05:23;;;;;;;4.70;2.20;;;11.70;99.90;;;;;;6057309;23;20023;-78
2024/02/09 15:08:12;;;;;;;7.25;3.05;;;11.70;99.90;;;;;;6058596;23;20059;-77
2024/02/09 15:11:01;;;;;;;3.65;2.53;;;11.60;99.90;;;;;;6060301;23;20113;-78
2024/02/09 15:13:49;;;;;;;4.28;2.33;;;11.70;99.90;;;;;;6060024;23;20041;-79
2024/02/09 15:16:43;;;;;;;3.20;2.15;;;11.60;99.90;;;;;;6060412;23;20058;-79
2024/02/09 15:19:31;;;;;;;2.47;1.83;;;11.60;99.90;;;;;;6064348;23;20030;-78
2024/02/09 15:22:19;;;;;;;5.03;2.30;;;11.60;99.90;;;;;;6061483;23;20023;-79
2024/02/09 15:25:09;;;;;;;3.47;2.40;;;11.50;99.90;;;;;;6048612;23;20023;-79
2024/02/09 15:27:57;;;;;;;7.15;2.47;;;11.50;99.90;;;;;;6063124;23;20138;-78
2024/02/09 15:30:50;;;;;;;3.17;2.33;;;11.50;99.90;;;;;;6045330;23;20682;-80
2024/02/09 15:33:39;;;;;;;6.85;2.40;;;11.50;99.90;;;;;;6073151;23;20365;-78
2024/02/09 15:36:30;;;;;;;5.28;2.50;;;11.50;99.90;;;;;;6068323;23;20068;-82
2024/02/09 15:39:18;;;;;;;3.17;2.10;;;11.40;99.90;;;;;;6069032;23;20058;-77
2024/02/09 15:42:06;;;;;;;6.22;2.97;;;11.40;99.90;;;;;;6075623;23;20050;-80
2024/02/09 15:44:55;;;;;;;5.25;2.65;;;11.40;99.90;;;;;;6065293;23;20023;-78
2024/02/09 15:47:45;;;;;;;4.90;2.20;;;11.40;99.90;;;;;;6055350;23;20045;-80
2024/02/09 15:50:33;;;;;;;8.70;2.55;;;11.40;99.90;;;;;;6040913;23;20098;-81
2024/02/09 15:53:22;;;;;;;3.38;2.28;;;11.30;99.90;;;;;;6060591;23;20023;-80
2024/02/09 15:56:10;;;;;;;4.38;2.70;;;11.30;99.90;;;;;;6068906;23;20026;-80
2024/02/09 15:59:00;;;;;;;5.80;2.47;;;11.30;99.90;;;;;;6065571;23;20034;-76
2024/02/09 16:01:49;;;;;;;7.25;2.42;;;11.30;99.90;;;;;;6042755;23;20026;-81
2024/02/09 16:04:37;;;;;;;4.70;2.28;;;11.20;99.90;;;;;;6063132;23;20030;-79
2024/02/09 16:07:26;;;;;;;7.63;2.25;;;11.10;99.90;;;;;;6063664;23;20050;-79
2024/02/09 16:10:17;;;;;;;4.40;2.17;;;11.00;99.90;;;;;;6064268;23;20034;-80
2024/02/09 16:13:06;;;;;;;6.10;2.00;;;10.80;99.90;;;;;;6042973;23;20059;-80
2024/02/09 16:15:55;;;;;;;4.25;2.10;;;10.70;99.90;;;;;;6067664;23;20054;-81
2024/02/09 16:18:42;;;;;;;3.80;2.40;;;10.60;99.90;;;;;;6088318;23;20078;-78
2024/02/09 16:21:31;;;;;;;4.45;2.28;;;10.50;99.90;;;;;;6083488;23;20054;-78
2024/02/09 16:24:21;;;;;;;3.33;2.10;;;10.40;99.90;;;;;;6054465;23;20367;-80
2024/02/09 16:27:08;;;;;;;3.47;2.10;;;10.30;99.90;;;;;;6072460;23;20049;-80
2024/02/09 16:29:58;;;;;;;3.92;2.08;;;10.20;99.90;;;;;;6045190;23;20027;-81
2024/02/09 16:32:47;;;;;;;3.35;2.42;;;10.10;99.90;;;;;;6038897;23;20026;-80
2024/02/09 16:35:38;;;;;;;6.15;2.63;;;10.00;99.90;;;;;;6064957;23;20045;-84
2024/02/09 16:38:30;;;;;;;4.47;2.47;;;10.00;99.90;;;;;;6041649;23;20027;-83
2024/02/09 16:41:18;;;;;;;2.72;1.95;;;9.90;99.90;;;;;;6041282;23;20038;-83